sensor_id;sensor_type;location;lat;lon;timestamp;P1;durP1;ratioP1;P2;durP2;ratioP2
62202;SDS011;48199;49.138;7.414;2022-07-24T00:00:29;16.67;;;8.15;;
62202;SDS011;48199;49.138;7.414;2022-07-24T00:02:54;11.25;;;8.55;;
62202;SDS011;48199;49.138;7.414;2022-07-24T00:05:19;14.10;;;8.98;;
62202;SDS011;48199;49.138;7.414;2022-07-24T00:07:45;13.73;;;8.00;;
62202;SDS011;48199;49.138;7.414;2022-07-24T00:10:10;14.05;;;8.98;;
62202;SDS011;48199;49.138;7.414;2022-07-24T00:12:36;15.57;;;8.65;;
62202;SDS011;48199;49.138;7.414;2022-07-24T00:15:03;17.90;;;9.18;;
62202;SDS011;48199;49.138;7.414;2022-07-24T00:17:29;12.95;;;8.77;;
62202;SDS011;48199;49.138;7.414;2022-07-24T00:19:55;11.55;;;8.18;;
62202;SDS011;48199;49.138;7.414;2022-07-24T00:22:20;14.25;;;8.15;;
62202;SDS011;48199;49.138;7.414;2022-07-24T00:24:46;10.88;;;7.95;;
62202;SDS011;48199;49.138;7.414;2022-07-24T00:27:11;15.00;;;9.25;;
62202;SDS011;48199;49.138;7.414;2022-07-24T00:29:37;15.88;;;8.82;;
62202;SDS011;48199;49.138;7.414;2022-07-24T00:32:02;14.07;;;9.35;;
62202;SDS011;48199;49.138;7.414;2022-07-24T00:34:28;16.13;;;8.73;;
62202;SDS011;48199;49.138;7.414;2022-07-24T00:36:53;16.05;;;9.40;;
62202;SDS011;48199;49.138;7.414;2022-07-24T00:39:18;11.88;;;8.35;;
62202;SDS011;48199;49.138;7.414;2022-07-24T00:41:44;12.57;;;8.73;;
62202;SDS011;48199;49.138;7.414;2022-07-24T00:44:10;12.77;;;8.73;;
62202;SDS011;48199;49.138;7.414;2022-07-24T00:46:39;15.20;;;9.57;;
62202;SDS011;48199;49.138;7.414;2022-07-24T00:49:06;13.88;;;9.55;;
62202;SDS011;48199;49.138;7.414;2022-07-24T00:51:34;11.82;;;9.00;;
62202;SDS011;48199;49.138;7.414;2022-07-24T00:54:04;12.27;;;8.90;;
62202;SDS011;48199;49.138;7.414;2022-07-24T00:56:30;13.32;;;9.05;;
62202;SDS011;48199;49.138;7.414;2022-07-24T00:58:55;13.80;;;9.68;;
62202;SDS011;48199;49.138;7.414;2022-07-24T01:01:21;14.52;;;9.45;;
62202;SDS011;48199;49.138;7.414;2022-07-24T01:03:46;15.65;;;8.95;;
62202;SDS011;48199;49.138;7.414;2022-07-24T01:06:12;13.57;;;9.02;;
62202;SDS011;48199;49.138;7.414;2022-07-24T01:08:38;14.55;;;8.82;;
62202;SDS011;48199;49.138;7.414;2022-07-24T01:11:04;12.48;;;8.85;;
62202;SDS011;48199;49.138;7.414;2022-07-24T01:13:31;20.08;;;9.88;;
62202;SDS011;48199;49.138;7.414;2022-07-24T01:15:57;13.45;;;9.73;;
62202;SDS011;48199;49.138;7.414;2022-07-24T01:18:23;14.82;;;9.38;;
62202;SDS011;48199;49.138;7.414;2022-07-24T01:20:48;11.55;;;8.63;;
62202;SDS011;48199;49.138;7.414;2022-07-24T01:23:14;14.27;;;8.77;;
62202;SDS011;48199;49.138;7.414;2022-07-24T01:25:40;13.43;;;9.45;;
62202;SDS011;48199;49.138;7.414;2022-07-24T01:28:06;13.65;;;8.80;;
62202;SDS011;48199;49.138;7.414;2022-07-24T01:30:31;15.98;;;9.43;;
62202;SDS011;48199;49.138;7.414;2022-07-24T01:32:57;15.63;;;10.43;;
62202;SDS011;48199;49.138;7.414;2022-07-24T01:35:23;11.75;;;8.60;;
62202;SDS011;48199;49.138;7.414;2022-07-24T01:37:48;13.90;;;8.90;;
62202;SDS011;48199;49.138;7.414;2022-07-24T01:40:13;12.45;;;8.50;;
62202;SDS011;48199;49.138;7.414;2022-07-24T01:42:39;11.98;;;9.18;;
62202;SDS011;48199;49.138;7.414;2022-07-24T01:45:05;16.58;;;10.30;;
62202;SDS011;48199;49.138;7.414;2022-07-24T01:47:31;13.38;;;9.48;;
62202;SDS011;48199;49.138;7.414;2022-07-24T01:49:56;14.27;;;9.75;;
62202;SDS011;48199;49.138;7.414;2022-07-24T01:52:22;13.05;;;10.18;;
62202;SDS011;48199;49.138;7.414;2022-07-24T01:54:50;13.40;;;9.68;;
62202;SDS011;48199;49.138;7.414;2022-07-24T01:57:16;12.63;;;9.55;;
62202;SDS011;48199;49.138;7.414;2022-07-24T01:59:41;13.20;;;8.70;;
62202;SDS011;48199;49.138;7.414;2022-07-24T02:02:07;12.90;;;9.60;;
62202;SDS011;48199;49.138;7.414;2022-07-24T02:04:32;15.10;;;10.57;;
62202;SDS011;48199;49.138;7.414;2022-07-24T02:06:58;11.50;;;9.20;;
62202;SDS011;48199;49.138;7.414;2022-07-24T02:09:23;15.02;;;9.55;;
62202;SDS011;48199;49.138;7.414;2022-07-24T02:11:49;15.00;;;10.88;;
62202;SDS011;48199;49.138;7.414;2022-07-24T02:14:14;14.05;;;9.07;;
62202;SDS011;48199;49.138;7.414;2022-07-24T02:16:39;14.65;;;8.93;;
62202;SDS011;48199;49.138;7.414;2022-07-24T02:19:05;13.00;;;8.38;;
62202;SDS011;48199;49.138;7.414;2022-07-24T02:21:30;14.02;;;10.32;;
62202;SDS011;48199;49.138;7.414;2022-07-24T02:23:56;18.90;;;9.80;;
62202;SDS011;48199;49.138;7.414;2022-07-24T02:26:21;12.38;;;9.27;;
62202;SDS011;48199;49.138;7.414;2022-07-24T02:28:47;14.20;;;10.02;;
62202;SDS011;48199;49.138;7.414;2022-07-24T02:31:13;16.55;;;10.05;;
62202;SDS011;48199;49.138;7.414;2022-07-24T02:33:38;15.88;;;10.23;;
62202;SDS011;48199;49.138;7.414;2022-07-24T02:36:04;15.10;;;10.02;;
62202;SDS011;48199;49.138;7.414;2022-07-24T02:38:30;16.15;;;9.63;;
62202;SDS011;48199;49.138;7.414;2022-07-24T02:40:56;13.20;;;9.63;;
62202;SDS011;48199;49.138;7.414;2022-07-24T02:43:22;14.00;;;9.23;;
62202;SDS011;48199;49.138;7.414;2022-07-24T02:45:47;14.95;;;9.43;;
62202;SDS011;48199;49.138;7.414;2022-07-24T02:48:12;14.77;;;9.75;;
62202;SDS011;48199;49.138;7.414;2022-07-24T02:50:38;13.07;;;10.05;;
62202;SDS011;48199;49.138;7.414;2022-07-24T02:53:04;12.98;;;9.15;;
62202;SDS011;48199;49.138;7.414;2022-07-24T02:55:30;13.98;;;9.50;;
62202;SDS011;48199;49.138;7.414;2022-07-24T02:57:56;17.65;;;10.60;;
62202;SDS011;48199;49.138;7.414;2022-07-24T03:00:22;15.68;;;9.10;;
62202;SDS011;48199;49.138;7.414;2022-07-24T03:02:47;14.68;;;9.93;;
62202;SDS011;48199;49.138;7.414;2022-07-24T03:05:13;12.02;;;9.27;;
62202;SDS011;48199;49.138;7.414;2022-07-24T03:07:38;16.08;;;9.75;;
62202;SDS011;48199;49.138;7.414;2022-07-24T03:10:04;14.73;;;10.55;;
62202;SDS011;48199;49.138;7.414;2022-07-24T03:12:31;14.77;;;9.95;;
62202;SDS011;48199;49.138;7.414;2022-07-24T03:14:56;15.25;;;9.45;;
62202;SDS011;48199;49.138;7.414;2022-07-24T03:17:22;14.48;;;8.95;;
62202;SDS011;48199;49.138;7.414;2022-07-24T03:19:47;13.68;;;10.07;;
62202;SDS011;48199;49.138;7.414;2022-07-24T03:22:13;15.48;;;10.35;;
62202;SDS011;48199;49.138;7.414;2022-07-24T03:24:38;14.50;;;10.07;;
62202;SDS011;48199;49.138;7.414;2022-07-24T03:27:03;13.90;;;10.57;;
62202;SDS011;48199;49.138;7.414;2022-07-24T03:29:29;15.93;;;11.40;;
62202;SDS011;48199;49.138;7.414;2022-07-24T03:31:54;15.90;;;10.38;;
62202;SDS011;48199;49.138;7.414;2022-07-24T03:34:20;12.48;;;9.70;;
62202;SDS011;48199;49.138;7.414;2022-07-24T03:36:45;15.13;;;10.27;;
62202;SDS011;48199;49.138;7.414;2022-07-24T03:39:11;15.38;;;10.20;;
62202;SDS011;48199;49.138;7.414;2022-07-24T03:41:36;13.13;;;9.80;;
62202;SDS011;48199;49.138;7.414;2022-07-24T03:44:01;16.15;;;9.98;;
62202;SDS011;48199;49.138;7.414;2022-07-24T03:46:27;14.43;;;9.73;;
62202;SDS011;48199;49.138;7.414;2022-07-24T03:48:53;13.27;;;8.57;;
62202;SDS011;48199;49.138;7.414;2022-07-24T03:51:19;11.88;;;9.55;;
62202;SDS011;48199;49.138;7.414;2022-07-24T03:53:45;12.23;;;8.68;;
62202;SDS011;48199;49.138;7.414;2022-07-24T03:56:10;13.50;;;8.80;;
62202;SDS011;48199;49.138;7.414;2022-07-24T03:58:36;15.60;;;10.25;;
62202;SDS011;48199;49.138;7.414;2022-07-24T04:01:02;13.57;;;9.07;;
62202;SDS011;48199;49.138;7.414;2022-07-24T04:03:27;13.18;;;9.32;;
62202;SDS011;48199;49.138;7.414;2022-07-24T04:05:53;14.15;;;9.65;;
62202;SDS011;48199;49.138;7.414;2022-07-24T04:08:18;12.43;;;9.13;;
62202;SDS011;48199;49.138;7.414;2022-07-24T04:10:44;12.25;;;9.55;;
62202;SDS011;48199;49.138;7.414;2022-07-24T04:13:09;13.38;;;9.55;;
62202;SDS011;48199;49.138;7.414;2022-07-24T04:15:35;13.10;;;9.43;;
62202;SDS011;48199;49.138;7.414;2022-07-24T04:18:00;11.70;;;9.60;;
62202;SDS011;48199;49.138;7.414;2022-07-24T04:20:26;12.85;;;9.52;;
62202;SDS011;48199;49.138;7.414;2022-07-24T04:22:51;13.90;;;9.18;;
62202;SDS011;48199;49.138;7.414;2022-07-24T04:25:17;15.18;;;10.10;;
62202;SDS011;48199;49.138;7.414;2022-07-24T04:27:42;13.13;;;9.30;;
62202;SDS011;48199;49.138;7.414;2022-07-24T04:30:09;12.75;;;9.80;;
62202;SDS011;48199;49.138;7.414;2022-07-24T04:32:35;16.42;;;9.20;;
62202;SDS011;48199;49.138;7.414;2022-07-24T04:35:02;11.07;;;8.82;;
62202;SDS011;48199;49.138;7.414;2022-07-24T04:37:28;11.68;;;9.43;;
62202;SDS011;48199;49.138;7.414;2022-07-24T04:39:53;12.63;;;9.38;;
62202;SDS011;48199;49.138;7.414;2022-07-24T04:42:19;12.55;;;9.23;;
62202;SDS011;48199;49.138;7.414;2022-07-24T04:44:44;14.43;;;9.20;;
62202;SDS011;48199;49.138;7.414;2022-07-24T04:47:09;13.18;;;9.90;;
62202;SDS011;48199;49.138;7.414;2022-07-24T04:49:35;14.73;;;9.95;;
62202;SDS011;48199;49.138;7.414;2022-07-24T04:52:00;11.90;;;9.07;;
62202;SDS011;48199;49.138;7.414;2022-07-24T04:54:25;13.88;;;9.40;;
62202;SDS011;48199;49.138;7.414;2022-07-24T04:56:51;11.43;;;8.88;;
62202;SDS011;48199;49.138;7.414;2022-07-24T04:59:16;12.65;;;8.82;;
62202;SDS011;48199;49.138;7.414;2022-07-24T05:01:41;13.70;;;8.35;;
62202;SDS011;48199;49.138;7.414;2022-07-24T05:04:07;11.95;;;8.48;;
62202;SDS011;48199;49.138;7.414;2022-07-24T05:06:32;12.00;;;8.68;;
62202;SDS011;48199;49.138;7.414;2022-07-24T05:08:57;13.48;;;7.75;;
62202;SDS011;48199;49.138;7.414;2022-07-24T05:11:23;10.20;;;7.50;;
62202;SDS011;48199;49.138;7.414;2022-07-24T05:13:48;11.48;;;7.82;;
62202;SDS011;48199;49.138;7.414;2022-07-24T05:16:13;9.35;;;6.47;;
62202;SDS011;48199;49.138;7.414;2022-07-24T05:18:39;12.02;;;7.13;;
62202;SDS011;48199;49.138;7.414;2022-07-24T05:21:04;11.52;;;7.32;;
62202;SDS011;48199;49.138;7.414;2022-07-24T05:23:30;9.85;;;6.63;;
62202;SDS011;48199;49.138;7.414;2022-07-24T05:25:55;10.00;;;7.10;;
62202;SDS011;48199;49.138;7.414;2022-07-24T05:28:20;13.50;;;6.60;;
62202;SDS011;48199;49.138;7.414;2022-07-24T05:30:46;12.07;;;7.32;;
62202;SDS011;48199;49.138;7.414;2022-07-24T05:33:11;9.38;;;6.70;;
62202;SDS011;48199;49.138;7.414;2022-07-24T05:35:37;11.45;;;6.88;;
62202;SDS011;48199;49.138;7.414;2022-07-24T05:38:03;13.55;;;7.32;;
62202;SDS011;48199;49.138;7.414;2022-07-24T05:40:28;8.77;;;6.95;;
62202;SDS011;48199;49.138;7.414;2022-07-24T05:42:54;7.70;;;6.20;;
62202;SDS011;48199;49.138;7.414;2022-07-24T05:45:19;8.98;;;6.63;;
62202;SDS011;48199;49.138;7.414;2022-07-24T05:47:45;9.98;;;6.82;;
62202;SDS011;48199;49.138;7.414;2022-07-24T05:50:11;9.27;;;6.85;;
62202;SDS011;48199;49.138;7.414;2022-07-24T05:52:38;8.43;;;6.88;;
62202;SDS011;48199;49.138;7.414;2022-07-24T05:55:04;15.30;;;7.40;;
62202;SDS011;48199;49.138;7.414;2022-07-24T05:57:31;9.35;;;6.68;;
62202;SDS011;48199;49.138;7.414;2022-07-24T05:59:56;9.95;;;7.10;;
62202;SDS011;48199;49.138;7.414;2022-07-24T06:02:22;10.98;;;7.15;;
62202;SDS011;48199;49.138;7.414;2022-07-24T06:04:47;11.70;;;7.82;;
62202;SDS011;48199;49.138;7.414;2022-07-24T06:07:12;11.93;;;7.03;;
62202;SDS011;48199;49.138;7.414;2022-07-24T06:09:38;9.02;;;6.85;;
62202;SDS011;48199;49.138;7.414;2022-07-24T06:12:04;8.70;;;7.15;;
62202;SDS011;48199;49.138;7.414;2022-07-24T06:14:30;10.35;;;7.72;;
62202;SDS011;48199;49.138;7.414;2022-07-24T06:16:57;9.95;;;7.88;;
62202;SDS011;48199;49.138;7.414;2022-07-24T06:19:22;12.50;;;8.45;;
62202;SDS011;48199;49.138;7.414;2022-07-24T06:21:48;12.18;;;8.48;;
62202;SDS011;48199;49.138;7.414;2022-07-24T06:24:14;11.80;;;7.78;;
62202;SDS011;48199;49.138;7.414;2022-07-24T06:26:39;14.57;;;7.72;;
62202;SDS011;48199;49.138;7.414;2022-07-24T06:29:05;10.63;;;7.97;;
62202;SDS011;48199;49.138;7.414;2022-07-24T06:31:30;12.88;;;8.07;;
62202;SDS011;48199;49.138;7.414;2022-07-24T06:33:56;13.05;;;7.75;;
62202;SDS011;48199;49.138;7.414;2022-07-24T06:36:21;12.02;;;8.10;;
62202;SDS011;48199;49.138;7.414;2022-07-24T06:38:47;12.73;;;7.65;;
62202;SDS011;48199;49.138;7.414;2022-07-24T06:41:13;11.48;;;7.85;;
62202;SDS011;48199;49.138;7.414;2022-07-24T06:43:39;9.60;;;8.02;;
62202;SDS011;48199;49.138;7.414;2022-07-24T06:46:04;8.73;;;7.47;;
62202;SDS011;48199;49.138;7.414;2022-07-24T06:48:30;13.90;;;8.27;;
62202;SDS011;48199;49.138;7.414;2022-07-24T06:50:56;11.45;;;7.47;;
62202;SDS011;48199;49.138;7.414;2022-07-24T06:53:21;12.65;;;7.63;;
62202;SDS011;48199;49.138;7.414;2022-07-24T06:55:47;13.38;;;7.40;;
62202;SDS011;48199;49.138;7.414;2022-07-24T06:58:12;10.93;;;6.95;;
62202;SDS011;48199;49.138;7.414;2022-07-24T07:00:38;9.45;;;6.78;;
62202;SDS011;48199;49.138;7.414;2022-07-24T07:03:04;14.35;;;6.90;;
62202;SDS011;48199;49.138;7.414;2022-07-24T07:05:30;13.43;;;7.47;;
62202;SDS011;48199;49.138;7.414;2022-07-24T07:07:56;10.63;;;7.32;;
62202;SDS011;48199;49.138;7.414;2022-07-24T07:10:21;11.23;;;7.30;;
62202;SDS011;48199;49.138;7.414;2022-07-24T07:12:47;10.52;;;7.10;;
62202;SDS011;48199;49.138;7.414;2022-07-24T07:15:12;10.45;;;7.15;;
62202;SDS011;48199;49.138;7.414;2022-07-24T07:17:39;13.63;;;7.70;;
62202;SDS011;48199;49.138;7.414;2022-07-24T07:20:06;11.13;;;7.78;;
62202;SDS011;48199;49.138;7.414;2022-07-24T07:22:33;8.88;;;7.03;;
62202;SDS011;48199;49.138;7.414;2022-07-24T07:24:58;10.55;;;7.80;;
62202;SDS011;48199;49.138;7.414;2022-07-24T07:27:23;13.25;;;8.05;;
62202;SDS011;48199;49.138;7.414;2022-07-24T07:29:49;14.10;;;7.88;;
62202;SDS011;48199;49.138;7.414;2022-07-24T07:32:14;14.93;;;8.50;;
62202;SDS011;48199;49.138;7.414;2022-07-24T07:34:39;12.13;;;8.18;;
62202;SDS011;48199;49.138;7.414;2022-07-24T07:37:05;12.20;;;7.68;;
62202;SDS011;48199;49.138;7.414;2022-07-24T07:39:31;10.52;;;7.60;;
62202;SDS011;48199;49.138;7.414;2022-07-24T07:41:57;9.77;;;7.43;;
62202;SDS011;48199;49.138;7.414;2022-07-24T07:44:22;13.05;;;8.27;;
62202;SDS011;48199;49.138;7.414;2022-07-24T07:46:48;15.82;;;7.93;;
62202;SDS011;48199;49.138;7.414;2022-07-24T07:49:13;12.80;;;7.72;;
62202;SDS011;48199;49.138;7.414;2022-07-24T07:51:38;13.07;;;7.43;;
62202;SDS011;48199;49.138;7.414;2022-07-24T07:54:04;9.35;;;6.75;;
62202;SDS011;48199;49.138;7.414;2022-07-24T07:56:30;9.93;;;7.72;;
62202;SDS011;48199;49.138;7.414;2022-07-24T07:58:56;13.20;;;6.90;;
62202;SDS011;48199;49.138;7.414;2022-07-24T08:01:22;11.48;;;7.97;;
62202;SDS011;48199;49.138;7.414;2022-07-24T08:03:47;14.05;;;7.47;;
62202;SDS011;48199;49.138;7.414;2022-07-24T08:06:13;10.50;;;7.13;;
62202;SDS011;48199;49.138;7.414;2022-07-24T08:08:38;9.95;;;7.10;;
62202;SDS011;48199;49.138;7.414;2022-07-24T08:11:04;10.20;;;7.97;;
62202;SDS011;48199;49.138;7.414;2022-07-24T08:13:29;10.13;;;7.60;;
62202;SDS011;48199;49.138;7.414;2022-07-24T08:15:55;9.80;;;7.05;;
62202;SDS011;48199;49.138;7.414;2022-07-24T08:18:21;11.20;;;7.18;;
62202;SDS011;48199;49.138;7.414;2022-07-24T08:20:46;11.02;;;7.30;;
62202;SDS011;48199;49.138;7.414;2022-07-24T08:23:12;10.00;;;6.80;;
62202;SDS011;48199;49.138;7.414;2022-07-24T08:25:37;8.20;;;6.97;;
62202;SDS011;48199;49.138;7.414;2022-07-24T08:28:03;8.65;;;6.65;;
62202;SDS011;48199;49.138;7.414;2022-07-24T08:30:28;9.93;;;6.47;;
62202;SDS011;48199;49.138;7.414;2022-07-24T08:32:54;8.48;;;6.65;;
62202;SDS011;48199;49.138;7.414;2022-07-24T08:35:19;12.30;;;7.00;;
62202;SDS011;48199;49.138;7.414;2022-07-24T08:37:45;10.45;;;6.45;;
62202;SDS011;48199;49.138;7.414;2022-07-24T08:40:11;9.40;;;6.95;;
62202;SDS011;48199;49.138;7.414;2022-07-24T08:42:38;8.10;;;6.45;;
62202;SDS011;48199;49.138;7.414;2022-07-24T08:45:04;8.90;;;5.90;;
62202;SDS011;48199;49.138;7.414;2022-07-24T08:47:30;9.82;;;6.30;;
62202;SDS011;48199;49.138;7.414;2022-07-24T08:49:57;8.85;;;6.18;;
62202;SDS011;48199;49.138;7.414;2022-07-24T08:52:23;8.55;;;6.28;;
62202;SDS011;48199;49.138;7.414;2022-07-24T08:54:50;12.50;;;7.28;;
62202;SDS011;48199;49.138;7.414;2022-07-24T08:57:16;7.10;;;6.25;;
62202;SDS011;48199;49.138;7.414;2022-07-24T08:59:41;10.25;;;7.30;;
62202;SDS011;48199;49.138;7.414;2022-07-24T09:02:07;11.70;;;6.75;;
62202;SDS011;48199;49.138;7.414;2022-07-24T09:09:42;11.40;;;6.18;;
62202;SDS011;48199;49.138;7.414;2022-07-24T09:12:13;8.57;;;5.65;;
62202;SDS011;48199;49.138;7.414;2022-07-24T09:14:44;7.93;;;6.15;;
62202;SDS011;48199;49.138;7.414;2022-07-24T09:17:16;10.77;;;6.63;;
62202;SDS011;48199;49.138;7.414;2022-07-24T09:19:54;10.07;;;6.50;;
62202;SDS011;48199;49.138;7.414;2022-07-24T09:22:36;10.20;;;6.40;;
62202;SDS011;48199;49.138;7.414;2022-07-24T09:27:32;7.63;;;6.45;;
62202;SDS011;48199;49.138;7.414;2022-07-24T09:29:59;10.30;;;6.10;;
62202;SDS011;48199;49.138;7.414;2022-07-24T09:32:24;10.68;;;6.38;;
62202;SDS011;48199;49.138;7.414;2022-07-24T09:34:51;8.18;;;5.93;;
62202;SDS011;48199;49.138;7.414;2022-07-24T09:37:18;10.48;;;6.18;;
62202;SDS011;48199;49.138;7.414;2022-07-24T09:39:44;7.53;;;5.72;;
62202;SDS011;48199;49.138;7.414;2022-07-24T09:42:10;9.57;;;6.15;;
62202;SDS011;48199;49.138;7.414;2022-07-24T09:44:36;8.85;;;5.78;;
62202;SDS011;48199;49.138;7.414;2022-07-24T09:47:02;9.35;;;5.45;;
62202;SDS011;48199;49.138;7.414;2022-07-24T09:49:32;6.95;;;5.47;;
62202;SDS011;48199;49.138;7.414;2022-07-24T09:54:32;8.57;;;5.25;;
62202;SDS011;48199;49.138;7.414;2022-07-24T09:59:54;6.85;;;4.43;;
62202;SDS011;48199;49.138;7.414;2022-07-24T10:02:25;6.40;;;4.70;;
62202;SDS011;48199;49.138;7.414;2022-07-24T10:04:53;7.10;;;4.88;;
62202;SDS011;48199;49.138;7.414;2022-07-24T10:07:19;11.00;;;4.63;;
62202;SDS011;48199;49.138;7.414;2022-07-24T10:09:47;7.22;;;4.45;;
62202;SDS011;48199;49.138;7.414;2022-07-24T10:12:18;6.97;;;4.53;;
62202;SDS011;48199;49.138;7.414;2022-07-24T10:14:46;7.50;;;4.72;;
62202;SDS011;48199;49.138;7.414;2022-07-24T10:17:13;6.22;;;4.32;;
62202;SDS011;48199;49.138;7.414;2022-07-24T10:19:41;9.52;;;5.20;;
62202;SDS011;48199;49.138;7.414;2022-07-24T10:22:17;7.68;;;4.28;;
62202;SDS011;48199;49.138;7.414;2022-07-24T10:27:31;8.88;;;4.85;;
62202;SDS011;48199;49.138;7.414;2022-07-24T10:30:04;8.43;;;5.07;;
62202;SDS011;48199;49.138;7.414;2022-07-24T10:32:33;6.38;;;4.68;;
62202;SDS011;48199;49.138;7.414;2022-07-24T10:35:13;7.03;;;4.68;;
62202;SDS011;48199;49.138;7.414;2022-07-24T10:37:57;7.40;;;5.10;;
62202;SDS011;48199;49.138;7.414;2022-07-24T10:40:42;10.13;;;4.93;;
62202;SDS011;48199;49.138;7.414;2022-07-24T10:43:17;5.97;;;4.68;;
62202;SDS011;48199;49.138;7.414;2022-07-24T10:45:45;7.28;;;5.10;;
62202;SDS011;48199;49.138;7.414;2022-07-24T10:53:28;7.25;;;4.80;;
62202;SDS011;48199;49.138;7.414;2022-07-24T10:56:24;10.48;;;4.93;;
62202;SDS011;48199;49.138;7.414;2022-07-24T10:59:10;8.23;;;4.45;;
62202;SDS011;48199;49.138;7.414;2022-07-24T11:01:40;6.05;;;4.88;;
62202;SDS011;48199;49.138;7.414;2022-07-24T11:06:45;9.57;;;4.85;;
62202;SDS011;48199;49.138;7.414;2022-07-24T11:09:13;6.60;;;4.72;;
62202;SDS011;48199;49.138;7.414;2022-07-24T11:12:13;10.45;;;4.78;;
62202;SDS011;48199;49.138;7.414;2022-07-24T11:20:01;11.18;;;4.40;;
62202;SDS011;48199;49.138;7.414;2022-07-24T11:22:38;10.00;;;5.20;;
62202;SDS011;48199;49.138;7.414;2022-07-24T11:25:05;10.73;;;5.50;;
62202;SDS011;48199;49.138;7.414;2022-07-24T11:27:43;9.23;;;5.05;;
62202;SDS011;48199;49.138;7.414;2022-07-24T11:30:10;7.15;;;5.10;;
62202;SDS011;48199;49.138;7.414;2022-07-24T11:32:36;7.93;;;4.80;;
62202;SDS011;48199;49.138;7.414;2022-07-24T11:35:04;6.20;;;4.50;;
62202;SDS011;48199;49.138;7.414;2022-07-24T11:37:32;7.53;;;4.70;;
62202;SDS011;48199;49.138;7.414;2022-07-24T11:40:00;10.35;;;4.65;;
62202;SDS011;48199;49.138;7.414;2022-07-24T11:42:25;6.35;;;4.50;;
62202;SDS011;48199;49.138;7.414;2022-07-24T11:44:50;8.60;;;4.70;;
62202;SDS011;48199;49.138;7.414;2022-07-24T11:47:20;6.55;;;4.75;;
62202;SDS011;48199;49.138;7.414;2022-07-24T11:49:48;7.10;;;4.72;;
62202;SDS011;48199;49.138;7.414;2022-07-24T11:52:21;7.23;;;4.63;;
62202;SDS011;48199;49.138;7.414;2022-07-24T11:54:53;6.28;;;4.35;;
62202;SDS011;48199;49.138;7.414;2022-07-24T11:57:21;7.57;;;4.65;;
62202;SDS011;48199;49.138;7.414;2022-07-24T11:59:49;8.35;;;4.55;;
62202;SDS011;48199;49.138;7.414;2022-07-24T12:02:16;6.82;;;4.68;;
62202;SDS011;48199;49.138;7.414;2022-07-24T12:04:43;6.28;;;4.50;;
62202;SDS011;48199;49.138;7.414;2022-07-24T12:07:13;7.13;;;4.78;;
62202;SDS011;48199;49.138;7.414;2022-07-24T12:09:47;7.00;;;4.35;;
62202;SDS011;48199;49.138;7.414;2022-07-24T12:12:51;10.20;;;4.25;;
62202;SDS011;48199;49.138;7.414;2022-07-24T12:15:11;5.65;;;3.97;;
62202;SDS011;48199;49.138;7.414;2022-07-24T12:20:31;9.25;;;5.20;;
62202;SDS011;48199;49.138;7.414;2022-07-24T12:23:01;6.03;;;4.90;;
62202;SDS011;48199;49.138;7.414;2022-07-24T12:25:28;9.43;;;4.43;;
62202;SDS011;48199;49.138;7.414;2022-07-24T12:28:04;7.63;;;4.10;;
62202;SDS011;48199;49.138;7.414;2022-07-24T12:30:33;8.95;;;4.60;;
62202;SDS011;48199;49.138;7.414;2022-07-24T12:33:02;6.80;;;4.72;;
62202;SDS011;48199;49.138;7.414;2022-07-24T12:38:25;10.02;;;4.35;;
62202;SDS011;48199;49.138;7.414;2022-07-24T12:41:00;6.70;;;4.18;;
62202;SDS011;48199;49.138;7.414;2022-07-24T12:46:20;7.38;;;4.65;;
62202;SDS011;48199;49.138;7.414;2022-07-24T12:49:00;8.38;;;3.95;;
62202;SDS011;48199;49.138;7.414;2022-07-24T12:51:47;10.52;;;4.85;;
62202;SDS011;48199;49.138;7.414;2022-07-24T12:54:34;7.72;;;4.32;;
62202;SDS011;48199;49.138;7.414;2022-07-24T12:57:06;8.15;;;4.15;;
62202;SDS011;48199;49.138;7.414;2022-07-24T12:59:37;6.55;;;4.38;;
62202;SDS011;48199;49.138;7.414;2022-07-24T13:02:09;8.93;;;4.57;;
62202;SDS011;48199;49.138;7.414;2022-07-24T13:04:41;6.95;;;4.53;;
62202;SDS011;48199;49.138;7.414;2022-07-24T13:07:10;6.28;;;4.53;;
62202;SDS011;48199;49.138;7.414;2022-07-24T13:09:36;5.57;;;4.38;;
62202;SDS011;48199;49.138;7.414;2022-07-24T13:12:02;6.88;;;4.63;;
62202;SDS011;48199;49.138;7.414;2022-07-24T13:14:30;7.95;;;4.60;;
62202;SDS011;48199;49.138;7.414;2022-07-24T13:17:00;8.38;;;4.45;;
62202;SDS011;48199;49.138;7.414;2022-07-24T13:19:45;8.90;;;4.35;;
62202;SDS011;48199;49.138;7.414;2022-07-24T13:22:13;7.43;;;4.15;;
62202;SDS011;48199;49.138;7.414;2022-07-24T13:24:39;5.18;;;3.78;;
62202;SDS011;48199;49.138;7.414;2022-07-24T13:27:06;6.38;;;4.00;;
62202;SDS011;48199;49.138;7.414;2022-07-24T13:29:32;5.32;;;4.10;;
62202;SDS011;48199;49.138;7.414;2022-07-24T13:31:59;6.10;;;3.97;;
62202;SDS011;48199;49.138;7.414;2022-07-24T13:34:25;5.65;;;3.83;;
62202;SDS011;48199;49.138;7.414;2022-07-24T13:36:52;7.22;;;4.07;;
62202;SDS011;48199;49.138;7.414;2022-07-24T13:39:17;7.22;;;4.10;;
62202;SDS011;48199;49.138;7.414;2022-07-24T13:41:43;8.52;;;3.97;;
62202;SDS011;48199;49.138;7.414;2022-07-24T13:44:08;8.35;;;3.83;;
62202;SDS011;48199;49.138;7.414;2022-07-24T13:46:34;4.70;;;3.70;;
62202;SDS011;48199;49.138;7.414;2022-07-24T13:49:00;6.75;;;3.95;;
62202;SDS011;48199;49.138;7.414;2022-07-24T13:51:28;6.95;;;3.50;;
62202;SDS011;48199;49.138;7.414;2022-07-24T13:53:54;7.35;;;4.00;;
62202;SDS011;48199;49.138;7.414;2022-07-24T13:56:19;5.93;;;4.25;;
62202;SDS011;48199;49.138;7.414;2022-07-24T13:58:46;5.78;;;4.10;;
62202;SDS011;48199;49.138;7.414;2022-07-24T14:01:12;5.28;;;3.72;;
62202;SDS011;48199;49.138;7.414;2022-07-24T14:03:42;6.50;;;3.70;;
62202;SDS011;48199;49.138;7.414;2022-07-24T14:06:08;6.78;;;4.20;;
62202;SDS011;48199;49.138;7.414;2022-07-24T14:08:34;6.60;;;3.70;;
62202;SDS011;48199;49.138;7.414;2022-07-24T14:11:00;6.20;;;3.22;;
62202;SDS011;48199;49.138;7.414;2022-07-24T14:13:26;5.47;;;3.78;;
62202;SDS011;48199;49.138;7.414;2022-07-24T14:15:51;6.80;;;4.00;;
62202;SDS011;48199;49.138;7.414;2022-07-24T14:18:17;5.43;;;3.90;;
62202;SDS011;48199;49.138;7.414;2022-07-24T14:20:42;6.07;;;4.20;;
62202;SDS011;48199;49.138;7.414;2022-07-24T14:23:08;5.75;;;3.83;;
62202;SDS011;48199;49.138;7.414;2022-07-24T14:25:33;5.03;;;3.63;;
62202;SDS011;48199;49.138;7.414;2022-07-24T14:27:59;4.97;;;3.80;;
62202;SDS011;48199;49.138;7.414;2022-07-24T14:30:24;5.82;;;3.65;;
62202;SDS011;48199;49.138;7.414;2022-07-24T14:32:50;5.95;;;4.00;;
62202;SDS011;48199;49.138;7.414;2022-07-24T14:35:15;6.93;;;3.85;;
62202;SDS011;48199;49.138;7.414;2022-07-24T14:37:41;4.88;;;3.75;;
62202;SDS011;48199;49.138;7.414;2022-07-24T14:40:07;6.47;;;3.70;;
62202;SDS011;48199;49.138;7.414;2022-07-24T14:42:34;8.23;;;4.00;;
62202;SDS011;48199;49.138;7.414;2022-07-24T14:45:00;6.90;;;4.55;;
62202;SDS011;48199;49.138;7.414;2022-07-24T14:47:25;6.75;;;3.63;;
62202;SDS011;48199;49.138;7.414;2022-07-24T14:49:51;5.68;;;4.07;;
62202;SDS011;48199;49.138;7.414;2022-07-24T14:52:16;10.02;;;4.40;;
62202;SDS011;48199;49.138;7.414;2022-07-24T14:54:45;6.93;;;3.72;;
62202;SDS011;48199;49.138;7.414;2022-07-24T14:57:11;8.82;;;4.57;;
62202;SDS011;48199;49.138;7.414;2022-07-24T14:59:36;8.07;;;4.70;;
62202;SDS011;48199;49.138;7.414;2022-07-24T15:02:02;5.85;;;4.28;;
62202;SDS011;48199;49.138;7.414;2022-07-24T15:04:27;6.68;;;4.47;;
62202;SDS011;48199;49.138;7.414;2022-07-24T15:06:53;7.32;;;4.22;;
62202;SDS011;48199;49.138;7.414;2022-07-24T15:09:18;7.25;;;3.67;;
62202;SDS011;48199;49.138;7.414;2022-07-24T15:11:44;5.28;;;3.83;;
62202;SDS011;48199;49.138;7.414;2022-07-24T15:14:09;6.60;;;4.40;;